DLH518 EDDF-MROC
Flight info
| Callsign | DLH518 |
|---|---|
| Flight time | N/A |
| Altitude | 34000 |
| Route | OBOKA2E OBOKA Z29 TORNU DCT BATAK DCT GALSO Q63 KOPUL DCT ENHAQ DCT GAJIT DCT BAPHU DCT LESLU/M080F340 DCT SOMAX/M080F360 DCT 50N020W 50N030W 49N040W 47N050W DCT PORTI DCT CARAC/M079F380 M201 NOVOK DCT MUNEY DCT NOSID DCT BEXUM DCT KANUX DCT CNNOR/N0456F380 DCT ZQA M329 DYNAH DCT TIBUR/N0460F390 UG437 ULBAS UM330 KANEX DCT UMAKA UG877 BONOS UZ403 PIRAS BARRA3P |
| Aircraft | A343/H-SDE2E3FGHIJ3J5M1P2RWXYZ/LB1D1 |
Departure
| Time | N/A |
|---|---|
| Airport | Frankfurt Main Airport (EDDF) |
Arrival
| Time | 2026-04-30 05:52 |
|---|---|
| Airport | Juan Santamaría International Airport (MROC) |
| Time | Latitude | Longitude | Altitude | Speed | Heading |
|---|---|---|---|---|---|
| 2026-04-30 04:46 | 16.83596 | -82.85207 | 38973 ft | 460 kts | 211° |
| 2026-04-30 04:47 | 16.77976 | -82.88541 | 38970 ft | 469 kts | 211° |
| 2026-04-30 04:47 | 16.72258 | -82.91928 | 38973 ft | 473 kts | 211° |
| 2026-04-30 04:48 | 16.66549 | -82.95307 | 38973 ft | 471 kts | 211° |
| 2026-04-30 04:48 | 16.60851 | -82.98678 | 38957 ft | 471 kts | 211° |
| 2026-04-30 04:49 | 16.55156 | -83.02046 | 38964 ft | 470 kts | 211° |
| 2026-04-30 04:49 | 16.49469 | -83.05408 | 38966 ft | 470 kts | 211° |
| 2026-04-30 04:50 | 16.43778 | -83.08769 | 38967 ft | 470 kts | 211° |
| 2026-04-30 04:50 | 16.38092 | -83.12124 | 38968 ft | 470 kts | 211° |
| 2026-04-30 04:51 | 16.32439 | -83.15458 | 38966 ft | 470 kts | 211° |
| 2026-04-30 04:51 | 16.26744 | -83.18815 | 38966 ft | 471 kts | 211° |
| 2026-04-30 04:52 | 16.21040 | -83.22175 | 38963 ft | 471 kts | 211° |
| 2026-04-30 04:52 | 16.15346 | -83.25526 | 38965 ft | 470 kts | 211° |
| 2026-04-30 04:53 | 16.09662 | -83.28869 | 38963 ft | 469 kts | 211° |
| 2026-04-30 04:53 | 16.03664 | -83.31539 | 38966 ft | 472 kts | 196° |
| 2026-04-30 04:54 | 15.97264 | -83.33077 | 38963 ft | 473 kts | 193° |
| 2026-04-30 04:54 | 15.90806 | -83.34411 | 38965 ft | 473 kts | 193° |
| 2026-04-30 04:55 | 15.84348 | -83.35730 | 38959 ft | 472 kts | 193° |
| 2026-04-30 04:55 | 15.77909 | -83.37070 | 38959 ft | 472 kts | 193° |
| 2026-04-30 04:56 | 15.71476 | -83.38422 | 38965 ft | 471 kts | 193° |
| 2026-04-30 04:56 | 15.65048 | -83.39776 | 38964 ft | 471 kts | 193° |
| 2026-04-30 04:57 | 15.58618 | -83.41128 | 38962 ft | 472 kts | 193° |
| 2026-04-30 04:57 | 15.52184 | -83.42479 | 38959 ft | 471 kts | 193° |
| 2026-04-30 04:58 | 15.45785 | -83.43822 | 38963 ft | 468 kts | 193° |
| 2026-04-30 04:58 | 15.39408 | -83.45159 | 38962 ft | 468 kts | 193° |
| 2026-04-30 04:59 | 15.33024 | -83.46497 | 38966 ft | 468 kts | 193° |
| 2026-04-30 04:59 | 15.26645 | -83.47834 | 38966 ft | 468 kts | 193° |
| 2026-04-30 05:00 | 15.20269 | -83.49168 | 38965 ft | 468 kts | 193° |
| 2026-04-30 05:00 | 15.13898 | -83.50502 | 38967 ft | 466 kts | 194° |
| 2026-04-30 05:01 | 15.07554 | -83.51827 | 38971 ft | 464 kts | 194° |
| 2026-04-30 05:01 | 15.01219 | -83.53151 | 38970 ft | 464 kts | 194° |
| 2026-04-30 05:02 | 14.94881 | -83.54475 | 38965 ft | 466 kts | 193° |
| 2026-04-30 05:02 | 14.88512 | -83.55805 | 38962 ft | 467 kts | 193° |
| 2026-04-30 05:03 | 14.82140 | -83.57133 | 38955 ft | 467 kts | 194° |
| 2026-04-30 05:03 | 14.75834 | -83.58447 | 38966 ft | 465 kts | 194° |
| 2026-04-30 05:04 | 14.69502 | -83.59766 | 38963 ft | 464 kts | 194° |
| 2026-04-30 05:04 | 14.63173 | -83.61084 | 38968 ft | 464 kts | 194° |
| 2026-04-30 05:05 | 14.56843 | -83.62402 | 38966 ft | 464 kts | 194° |
| 2026-04-30 05:05 | 14.50513 | -83.63718 | 38966 ft | 464 kts | 194° |
| 2026-04-30 05:06 | 14.41021 | -83.65691 | 38960 ft | 464 kts | 194° |
| 2026-04-30 05:06 | 14.34691 | -83.67005 | 38963 ft | 464 kts | 194° |
| 2026-04-30 05:07 | 14.28366 | -83.68318 | 38963 ft | 464 kts | 194° |
| 2026-04-30 05:07 | 14.22041 | -83.69630 | 38963 ft | 464 kts | 194° |
| 2026-04-30 05:08 | 14.15712 | -83.70942 | 38961 ft | 464 kts | 194° |
| 2026-04-30 05:08 | 14.09385 | -83.72253 | 38959 ft | 464 kts | 194° |
| 2026-04-30 05:09 | 14.03058 | -83.73563 | 38961 ft | 464 kts | 194° |
| 2026-04-30 05:09 | 13.96733 | -83.74872 | 38951 ft | 464 kts | 194° |
| 2026-04-30 05:10 | 13.90411 | -83.76179 | 38957 ft | 463 kts | 194° |
| 2026-04-30 05:10 | 13.84087 | -83.77487 | 38953 ft | 463 kts | 194° |
| 2026-04-30 05:11 | 13.77765 | -83.78793 | 38940 ft | 463 kts | 194° |
| 2026-04-30 05:11 | 13.71434 | -83.80100 | 38956 ft | 464 kts | 194° |
| 2026-04-30 05:12 | 13.65101 | -83.81408 | 38952 ft | 465 kts | 194° |
| 2026-04-30 05:12 | 13.58761 | -83.82715 | 38949 ft | 465 kts | 194° |
| 2026-04-30 05:13 | 13.53494 | -83.83801 | 38947 ft | 464 kts | 194° |
| 2026-04-30 05:13 | 13.47155 | -83.85107 | 38949 ft | 464 kts | 194° |
| 2026-04-30 05:14 | 13.39791 | -83.86624 | 38942 ft | 465 kts | 194° |
| 2026-04-30 05:14 | 13.34475 | -83.87718 | 38947 ft | 465 kts | 194° |
| 2026-04-30 05:15 | 13.28133 | -83.89023 | 38946 ft | 465 kts | 194° |
| 2026-04-30 05:15 | 13.21790 | -83.90327 | 38944 ft | 465 kts | 194° |
| 2026-04-30 05:16 | 13.15446 | -83.91631 | 38946 ft | 465 kts | 194° |
| 2026-04-30 05:16 | 13.09090 | -83.92937 | 38943 ft | 466 kts | 194° |
| 2026-04-30 05:17 | 13.02729 | -83.94242 | 38939 ft | 466 kts | 194° |
| 2026-04-30 05:17 | 12.96374 | -83.95546 | 38947 ft | 466 kts | 194° |
| 2026-04-30 05:18 | 12.90022 | -83.96849 | 38944 ft | 465 kts | 194° |
| 2026-04-30 05:18 | 12.83672 | -83.98150 | 38939 ft | 466 kts | 194° |
| 2026-04-30 05:19 | 12.77320 | -83.99452 | 38938 ft | 466 kts | 194° |
| 2026-04-30 05:19 | 12.70969 | -84.00752 | 38938 ft | 466 kts | 194° |
| 2026-04-30 05:20 | 12.64612 | -84.02053 | 38938 ft | 465 kts | 194° |
| 2026-04-30 05:20 | 12.58316 | -84.03341 | 38938 ft | 465 kts | 194° |
| 2026-04-30 05:21 | 12.51973 | -84.04638 | 38936 ft | 465 kts | 194° |
| 2026-04-30 05:21 | 12.45632 | -84.05934 | 38935 ft | 465 kts | 194° |
| 2026-04-30 05:22 | 12.39289 | -84.07230 | 38935 ft | 465 kts | 194° |
| 2026-04-30 05:22 | 12.32949 | -84.08524 | 38931 ft | 465 kts | 194° |
| 2026-04-30 05:23 | 12.26611 | -84.09816 | 38932 ft | 464 kts | 194° |
| 2026-04-30 05:23 | 12.20284 | -84.11107 | 38933 ft | 464 kts | 194° |
| 2026-04-30 05:24 | 12.13957 | -84.12397 | 38930 ft | 464 kts | 194° |
| 2026-04-30 05:24 | 12.07630 | -84.13686 | 38927 ft | 464 kts | 194° |
| 2026-04-30 05:25 | 12.01300 | -84.14976 | 38931 ft | 464 kts | 194° |
| 2026-04-30 05:25 | 11.94974 | -84.16263 | 38929 ft | 463 kts | 194° |
| 2026-04-30 05:26 | 11.88652 | -84.17549 | 38932 ft | 463 kts | 194° |
| 2026-04-30 05:26 | 11.82335 | -84.18834 | 38930 ft | 463 kts | 194° |
| 2026-04-30 05:27 | 11.76016 | -84.20119 | 38932 ft | 463 kts | 194° |
| 2026-04-30 05:27 | 11.69699 | -84.21402 | 38927 ft | 463 kts | 194° |
| 2026-04-30 05:28 | 11.63411 | -84.22677 | 38625 ft | 454 kts | 194° |
| 2026-04-30 05:28 | 11.60341 | -84.23297 | 38363 ft | 446 kts | 195° |
| 2026-04-30 05:28 | 11.57327 | -84.23906 | 38100 ft | 438 kts | 195° |
| 2026-04-30 05:29 | 11.54363 | -84.24507 | 37840 ft | 432 kts | 195° |
| 2026-04-30 05:29 | 11.51422 | -84.25104 | 37589 ft | 432 kts | 195° |
| 2026-04-30 05:29 | 11.48470 | -84.25706 | 37325 ft | 434 kts | 195° |
| 2026-04-30 05:29 | 11.45506 | -84.26310 | 37061 ft | 435 kts | 194° |
| 2026-04-30 05:30 | 11.42536 | -84.26914 | 36811 ft | 436 kts | 194° |
| 2026-04-30 05:30 | 11.39564 | -84.27518 | 36558 ft | 436 kts | 194° |
| 2026-04-30 05:30 | 11.36585 | -84.28122 | 36319 ft | 437 kts | 194° |
| 2026-04-30 05:30 | 11.33601 | -84.28727 | 36068 ft | 438 kts | 194° |
| 2026-04-30 05:31 | 11.30612 | -84.29332 | 35839 ft | 439 kts | 194° |
| 2026-04-30 05:31 | 11.27617 | -84.29938 | 35584 ft | 438 kts | 194° |
| 2026-04-30 05:31 | 11.24641 | -84.30540 | 35141 ft | 435 kts | 194° |
| 2026-04-30 05:31 | 11.21726 | -84.31129 | 34735 ft | 430 kts | 193° |
| 2026-04-30 05:32 | 11.18789 | -84.31723 | 34117 ft | 431 kts | 193° |
| 2026-04-30 05:32 | 11.15834 | -84.32322 | 33280 ft | 435 kts | 193° |
| 2026-04-30 05:32 | 11.12846 | -84.32927 | 32418 ft | 439 kts | 193° |
| 2026-04-30 05:32 | 11.09844 | -84.33535 | 31644 ft | 441 kts | 193° |
| 2026-04-30 05:33 | 11.06822 | -84.34147 | 30875 ft | 443 kts | 193° |
| 2026-04-30 05:33 | 11.03801 | -84.34757 | 30300 ft | 441 kts | 193° |
| 2026-04-30 05:33 | 11.00801 | -84.35362 | 29715 ft | 438 kts | 193° |
| 2026-04-30 05:33 | 10.97829 | -84.35962 | 29115 ft | 434 kts | 193° |
| 2026-04-30 05:34 | 10.94885 | -84.36556 | 28546 ft | 429 kts | 193° |
| 2026-04-30 05:34 | 10.91968 | -84.37146 | 27979 ft | 425 kts | 193° |
| 2026-04-30 05:34 | 10.89119 | -84.37920 | 27238 ft | 424 kts | 198° |
| 2026-04-30 05:34 | 10.86296 | -84.38829 | 26445 ft | 426 kts | 199° |
| 2026-04-30 05:35 | 10.83476 | -84.39759 | 25820 ft | 424 kts | 199° |
| 2026-04-30 05:35 | 10.80680 | -84.40686 | 25257 ft | 421 kts | 199° |
| 2026-04-30 05:35 | 10.77908 | -84.41607 | 24708 ft | 418 kts | 199° |
| 2026-04-30 05:35 | 10.75151 | -84.42523 | 24136 ft | 415 kts | 198° |
| 2026-04-30 05:36 | 10.72417 | -84.43432 | 23579 ft | 413 kts | 198° |
| 2026-04-30 05:36 | 10.69694 | -84.44337 | 22960 ft | 410 kts | 198° |
| 2026-04-30 05:36 | 10.66996 | -84.45234 | 22410 ft | 406 kts | 198° |
| 2026-04-30 05:36 | 10.64324 | -84.46122 | 21858 ft | 403 kts | 198° |
| 2026-04-30 05:37 | 10.61670 | -84.47004 | 21314 ft | 399 kts | 198° |
| 2026-04-30 05:37 | 10.59043 | -84.47877 | 20774 ft | 397 kts | 198° |
| 2026-04-30 05:37 | 10.56419 | -84.48749 | 20222 ft | 395 kts | 198° |
| 2026-04-30 05:37 | 10.53816 | -84.49613 | 19702 ft | 393 kts | 198° |
| 2026-04-30 05:38 | 10.51219 | -84.50476 | 19127 ft | 393 kts | 198° |
| 2026-04-30 05:38 | 10.48619 | -84.51339 | 18573 ft | 392 kts | 198° |
| 2026-04-30 05:38 | 10.46026 | -84.52200 | 18002 ft | 392 kts | 198° |
| 2026-04-30 05:38 | 10.43441 | -84.53058 | 17441 ft | 390 kts | 198° |
| 2026-04-30 05:39 | 10.40869 | -84.53912 | 16883 ft | 388 kts | 198° |
| 2026-04-30 05:39 | 10.38312 | -84.54760 | 16337 ft | 385 kts | 198° |
| 2026-04-30 05:39 | 10.35771 | -84.55603 | 15788 ft | 383 kts | 198° |
| 2026-04-30 05:39 | 10.33274 | -84.56431 | 15239 ft | 382 kts | 198° |
| 2026-04-30 05:40 | 10.30753 | -84.57268 | 14683 ft | 381 kts | 198° |
| 2026-04-30 05:40 | 10.28240 | -84.58101 | 14139 ft | 379 kts | 198° |
| 2026-04-30 05:40 | 10.25739 | -84.58930 | 13674 ft | 376 kts | 198° |
| 2026-04-30 05:40 | 10.23302 | -84.59738 | 13538 ft | 361 kts | 198° |
| 2026-04-30 05:41 | 10.20960 | -84.60515 | 13424 ft | 348 kts | 198° |
| 2026-04-30 05:41 | 10.18698 | -84.61265 | 13288 ft | 336 kts | 198° |
| 2026-04-30 05:41 | 10.16495 | -84.61939 | 13131 ft | 326 kts | 192° |
| 2026-04-30 05:41 | 10.14275 | -84.61990 | 12857 ft | 315 kts | 167° |
| 2026-04-30 05:42 | 10.12276 | -84.61201 | 12129 ft | 306 kts | 150° |
| 2026-04-30 05:42 | 10.10456 | -84.60106 | 11403 ft | 301 kts | 147° |
| 2026-04-30 05:42 | 10.08699 | -84.59002 | 11175 ft | 292 kts | 148° |
| 2026-04-30 05:42 | 10.06991 | -84.57941 | 11058 ft | 284 kts | 148° |
| 2026-04-30 05:43 | 10.05323 | -84.56914 | 10953 ft | 277 kts | 148° |
| 2026-04-30 05:43 | 10.03693 | -84.55918 | 10843 ft | 275 kts | 148° |
| 2026-04-30 05:43 | 10.01995 | -84.54888 | 10759 ft | 290 kts | 148° |
| 2026-04-30 05:43 | 10.00288 | -84.53853 | 10558 ft | 279 kts | 148° |
| 2026-04-30 05:44 | 9.98668 | -84.52872 | 10243 ft | 265 kts | 148° |
| 2026-04-30 05:44 | 9.97070 | -84.52025 | 9750 ft | 257 kts | 165° |
| 2026-04-30 05:44 | 9.95314 | -84.51932 | 9342 ft | 253 kts | 182° |
| 2026-04-30 05:44 | 9.93551 | -84.51954 | 9094 ft | 253 kts | 177° |
| 2026-04-30 05:45 | 9.91800 | -84.51782 | 8858 ft | 252 kts | 169° |
| 2026-04-30 05:45 | 9.90239 | -84.51050 | 8582 ft | 249 kts | 134° |
| 2026-04-30 05:45 | 9.89436 | -84.49555 | 8355 ft | 242 kts | 97° |
| 2026-04-30 05:45 | 9.89483 | -84.47877 | 8134 ft | 238 kts | 77° |
| 2026-04-30 05:46 | 9.89935 | -84.46273 | 7893 ft | 236 kts | 69° |
| 2026-04-30 05:46 | 9.90501 | -84.44754 | 7533 ft | 232 kts | 68° |
| 2026-04-30 05:46 | 9.91073 | -84.43231 | 7051 ft | 230 kts | 69° |
| 2026-04-30 05:46 | 9.91624 | -84.41730 | 6683 ft | 224 kts | 69° |
| 2026-04-30 05:47 | 9.92160 | -84.40293 | 6441 ft | 214 kts | 69° |
| 2026-04-30 05:47 | 9.92676 | -84.38907 | 6159 ft | 206 kts | 69° |
| 2026-04-30 05:47 | 9.93169 | -84.37580 | 5902 ft | 194 kts | 68° |
| 2026-04-30 05:47 | 9.93627 | -84.36353 | 5733 ft | 179 kts | 69° |
| 2026-04-30 05:48 | 9.94048 | -84.35219 | 5496 ft | 165 kts | 69° |
| 2026-04-30 05:48 | 9.94435 | -84.34181 | 5312 ft | 150 kts | 69° |
| 2026-04-30 05:48 | 9.94789 | -84.33227 | 5117 ft | 142 kts | 67° |
| 2026-04-30 05:48 | 9.95143 | -84.32290 | 4936 ft | 143 kts | 67° |
| 2026-04-30 05:49 | 9.95494 | -84.31347 | 4755 ft | 143 kts | 67° |
| 2026-04-30 05:49 | 9.95846 | -84.30404 | 4572 ft | 144 kts | 68° |
| 2026-04-30 05:49 | 9.96201 | -84.29450 | 4455 ft | 144 kts | 68° |
| 2026-04-30 05:49 | 9.96555 | -84.28503 | 4363 ft | 144 kts | 70° |
| 2026-04-30 05:50 | 9.96906 | -84.27556 | 4151 ft | 143 kts | 69° |
| 2026-04-30 05:50 | 9.97256 | -84.26618 | 3923 ft | 141 kts | 69° |
| 2026-04-30 05:50 | 9.97605 | -84.25686 | 3756 ft | 142 kts | 69° |
| 2026-04-30 05:50 | 9.97962 | -84.24740 | 3498 ft | 145 kts | 69° |
| 2026-04-30 05:51 | 9.98317 | -84.23797 | 3290 ft | 140 kts | 71° |
| 2026-04-30 05:51 | 9.98646 | -84.22893 | 3103 ft | 133 kts | 70° |
| 2026-04-30 05:51 | 9.98962 | -84.22047 | 2954 ft | 122 kts | 71° |
| 2026-04-30 05:51 | 9.99213 | -84.21367 | 2971 ft | 78 kts | 69° |
| 2026-04-30 05:52 | 9.99371 | -84.20943 | 2993 ft | 57 kts | 69° |
| 2026-04-30 05:52 | 9.99501 | -84.20595 | 3008 ft | 49 kts | 69° |
| 2026-04-30 05:52 | 9.99610 | -84.20309 | 3023 ft | 39 kts | 69° |
| 2026-04-30 05:52 | 9.99669 | -84.20164 | 3031 ft | 8 kts | 49° |
| 2026-04-30 05:53 | 9.99706 | -84.20152 | 3032 ft | 4 kts | 0° |
| 2026-04-30 05:53 | 9.99723 | -84.20168 | 3029 ft | 3 kts | 293° |
| 2026-04-30 05:53 | 9.99727 | -84.20204 | 3030 ft | 8 kts | 271° |
| 2026-04-30 05:53 | 9.99705 | -84.20298 | 3025 ft | 17 kts | 251° |
| 2026-04-30 05:54 | 9.99661 | -84.20419 | 3017 ft | 12 kts | 249° |
| 2026-04-30 05:54 | 9.99633 | -84.20493 | 3014 ft | 9 kts | 249° |
| 2026-04-30 05:54 | 9.99628 | -84.20520 | 3013 ft | 5 kts | 275° |
| 2026-04-30 05:54 | 9.99654 | -84.20544 | 3012 ft | 5 kts | 333° |
| 2026-04-30 05:55 | 9.99672 | -84.20552 | 3012 ft | 0 kts | 339° |